createdAt,value
2023-02-25T00:01:39.024Z,4.50
2023-02-25T00:04:06.273Z,4.50
2023-02-25T00:06:33.269Z,4.40
2023-02-25T00:09:01.120Z,4.40
2023-02-25T00:11:28.382Z,4.40
2023-02-25T00:13:55.488Z,4.40
2023-02-25T00:16:24.298Z,4.40
2023-02-25T00:18:58.563Z,4.40
2023-02-25T00:21:27.049Z,4.40
2023-02-25T00:23:54.463Z,4.40
2023-02-25T00:26:22.624Z,4.30
2023-02-25T00:28:50.276Z,4.40
2023-02-25T00:31:23.948Z,4.40
2023-02-25T00:33:52.994Z,4.40
2023-02-25T00:36:23.861Z,4.40
2023-02-25T00:38:56.478Z,4.40
2023-02-25T00:41:30.967Z,4.40
2023-02-25T00:44:00.687Z,4.30
2023-02-25T00:46:30.111Z,4.30
2023-02-25T00:48:58.580Z,4.30
2023-02-25T00:51:28.114Z,4.30
2023-02-25T00:53:56.588Z,4.30
2023-02-25T00:56:25.628Z,4.30
2023-02-25T00:58:53.355Z,4.30
2023-02-25T01:01:26.898Z,4.30
2023-02-25T01:03:56.609Z,4.30
2023-02-25T01:06:25.445Z,4.20
2023-02-25T01:08:53.216Z,4.20
2023-02-25T01:11:30.000Z,4.20
2023-02-25T01:14:08.542Z,4.20
2023-02-25T01:16:36.789Z,4.20
2023-02-25T01:19:15.372Z,4.10
2023-02-25T01:21:45.119Z,4.20
2023-02-25T01:24:22.498Z,4.20
2023-02-25T01:26:52.154Z,4.20
2023-02-25T01:29:26.446Z,4.20
2023-02-25T01:31:55.866Z,4.10
2023-02-25T01:34:24.251Z,4.10
2023-02-25T01:36:51.662Z,4.10
2023-02-25T01:39:19.951Z,4.10
2023-02-25T01:41:50.974Z,4.10
2023-02-25T01:44:30.668Z,4.00
2023-02-25T01:46:58.092Z,4.00
2023-02-25T01:49:35.174Z,3.90
2023-02-25T01:52:09.953Z,3.90
2023-02-25T01:54:37.820Z,4.00
2023-02-25T01:57:10.436Z,4.00
2023-02-25T01:59:40.716Z,4.00
2023-02-25T02:02:10.097Z,4.10
2023-02-25T02:04:39.512Z,4.10
2023-02-25T02:07:07.561Z,4.10
2023-02-25T02:09:35.121Z,4.10
2023-02-25T02:12:05.241Z,4.20
2023-02-25T02:14:37.774Z,4.20
2023-02-25T02:17:18.815Z,4.30
2023-02-25T02:19:49.769Z,4.30
2023-02-25T02:22:47.185Z,4.30
2023-02-25T02:25:40.557Z,4.30
2023-02-25T02:28:13.163Z,4.30
2023-02-25T02:30:44.146Z,4.30
2023-02-25T02:33:36.612Z,4.30
2023-02-25T02:36:51.306Z,4.30
2023-02-25T02:39:39.413Z,4.30
2023-02-25T02:42:31.717Z,4.30
2023-02-25T02:45:16.759Z,4.30
2023-02-25T02:47:53.994Z,4.30
2023-02-25T02:50:39.427Z,4.20
2023-02-25T02:53:13.070Z,4.20
2023-02-25T02:55:44.386Z,4.20
2023-02-25T02:58:22.179Z,4.20
2023-02-25T03:00:56.846Z,4.20
2023-02-25T03:03:36.479Z,4.20
2023-02-25T03:06:08.930Z,4.20
2023-02-25T03:08:44.816Z,4.10
2023-02-25T03:11:13.525Z,4.10
2023-02-25T03:13:41.397Z,4.10
2023-02-25T03:16:14.222Z,4.10
2023-02-25T03:19:01.100Z,4.20
2023-02-25T03:21:35.490Z,4.20
2023-02-25T03:24:04.754Z,4.30
2023-02-25T03:26:33.644Z,4.30
2023-02-25T03:29:04.060Z,4.30
2023-02-25T03:32:01.709Z,4.30
2023-02-25T03:34:35.986Z,4.30
2023-02-25T03:37:10.183Z,4.30
2023-02-25T03:39:41.127Z,4.30
2023-02-25T03:42:12.336Z,4.30
2023-02-25T03:44:46.193Z,4.40
2023-02-25T03:47:14.520Z,4.40
2023-02-25T03:50:11.336Z,4.40
2023-02-25T03:52:41.212Z,4.40
2023-02-25T03:55:18.556Z,4.40
2023-02-25T03:57:48.473Z,4.50
2023-02-25T04:00:28.929Z,4.50
2023-02-25T04:02:56.433Z,4.50
2023-02-25T04:05:27.808Z,4.40
2023-02-25T04:07:56.523Z,4.40
2023-02-25T04:10:25.128Z,4.40
2023-02-25T04:12:52.359Z,4.30
2023-02-25T04:15:20.438Z,4.30
2023-02-25T04:17:47.511Z,4.30
2023-02-25T04:20:16.408Z,4.30
2023-02-25T04:22:43.682Z,4.30
2023-02-25T04:25:11.118Z,4.20
2023-02-25T04:27:38.450Z,4.20
2023-02-25T04:30:07.370Z,4.20
2023-02-25T04:32:34.579Z,4.20
2023-02-25T04:35:03.571Z,4.10
2023-02-25T04:37:30.999Z,4.10
2023-02-25T04:39:58.587Z,4.10
2023-02-25T04:42:25.501Z,4.10
2023-02-25T04:44:52.682Z,4.10
2023-02-25T04:47:19.689Z,4.10
2023-02-25T04:49:46.654Z,4.10
2023-02-25T04:52:15.479Z,4.00
2023-02-25T04:54:42.681Z,4.00
2023-02-25T04:57:11.650Z,4.00
2023-02-25T04:59:39.095Z,4.00
2023-02-25T05:02:07.595Z,4.00
2023-02-25T05:04:36.269Z,3.90
2023-02-25T05:07:04.315Z,3.90
2023-02-25T05:09:31.665Z,3.90
2023-02-25T05:11:58.846Z,3.90
2023-02-25T05:14:25.806Z,3.90
2023-02-25T05:16:52.873Z,3.90
2023-02-25T05:19:22.493Z,3.90
2023-02-25T05:21:53.790Z,3.90
2023-02-25T05:24:23.803Z,4.00
2023-02-25T05:26:51.772Z,4.00
2023-02-25T05:29:18.922Z,4.00
2023-02-25T05:31:46.237Z,4.00
2023-02-25T05:34:13.339Z,4.10
2023-02-25T05:36:41.103Z,4.10
2023-02-25T05:39:08.158Z,4.10
2023-02-25T05:41:35.110Z,4.10
2023-02-25T05:44:02.033Z,4.10
2023-02-25T05:46:29.117Z,4.10
2023-02-25T05:48:56.188Z,4.00
2023-02-25T05:51:23.857Z,4.00
2023-02-25T05:53:51.859Z,4.00
2023-02-25T05:56:22.021Z,3.90
2023-02-25T05:58:49.652Z,3.90
2023-02-25T06:01:19.969Z,3.90
2023-02-25T06:03:48.064Z,3.80
2023-02-25T06:06:17.896Z,3.80
2023-02-25T06:08:45.116Z,3.80
2023-02-25T06:11:17.169Z,3.80
2023-02-25T06:13:44.240Z,3.80
2023-02-25T06:16:11.217Z,3.80
2023-02-25T06:18:38.161Z,3.80
2023-02-25T06:21:07.956Z,3.70
2023-02-25T06:23:36.796Z,3.70
2023-02-25T06:26:05.063Z,3.70
2023-02-25T06:28:32.268Z,3.80
2023-02-25T06:30:59.404Z,3.80
2023-02-25T06:33:26.553Z,3.70
2023-02-25T06:35:55.513Z,3.70
2023-02-25T06:38:22.717Z,3.70
2023-02-25T06:40:50.241Z,3.70
2023-02-25T06:43:17.521Z,3.70
2023-02-25T06:45:44.833Z,3.70
2023-02-25T06:48:11.807Z,3.70
2023-02-25T06:50:39.907Z,3.60
2023-02-25T06:53:08.020Z,3.60
2023-02-25T06:55:35.950Z,3.60
2023-02-25T06:58:02.934Z,3.60
2023-02-25T07:00:30.054Z,3.60
2023-02-25T07:02:57.482Z,3.60
2023-02-25T07:05:24.659Z,3.60
2023-02-25T07:07:51.723Z,3.60
2023-02-25T07:10:18.677Z,3.60
2023-02-25T07:12:46.037Z,3.60
2023-02-25T07:15:13.048Z,3.70
2023-02-25T07:17:40.091Z,3.70
2023-02-25T07:20:07.824Z,3.70
2023-02-25T07:22:34.745Z,3.70
2023-02-25T07:25:02.629Z,3.70
2023-02-25T07:27:29.678Z,3.80
2023-02-25T07:29:56.724Z,3.80
2023-02-25T07:32:26.806Z,3.90
2023-02-25T07:34:53.950Z,3.90
2023-02-25T07:37:20.843Z,3.90
2023-02-25T07:39:47.925Z,4.00
2023-02-25T07:42:14.908Z,4.10
2023-02-25T07:44:47.577Z,4.10
2023-02-25T07:47:14.702Z,4.20
2023-02-25T07:49:41.756Z,4.30
2023-02-25T07:52:09.130Z,4.40
2023-02-25T07:54:36.018Z,4.50
2023-02-25T07:57:03.374Z,4.50
2023-02-25T07:59:31.816Z,4.60
2023-02-25T08:01:58.944Z,4.70
2023-02-25T08:04:26.144Z,4.70
2023-02-25T08:06:54.209Z,4.80
2023-02-25T08:09:21.193Z,4.80
2023-02-25T08:11:48.264Z,4.80
2023-02-25T08:14:15.376Z,4.80
2023-02-25T08:16:42.481Z,4.80
2023-02-25T08:19:09.485Z,4.80
2023-02-25T08:21:37.508Z,4.80
2023-02-25T08:24:05.132Z,4.80
2023-02-25T08:26:32.511Z,4.90
2023-02-25T08:28:59.854Z,5.00
2023-02-25T08:31:27.434Z,5.00
2023-02-25T08:33:55.072Z,5.10
2023-02-25T08:36:25.033Z,5.10
2023-02-25T08:38:52.979Z,5.20
2023-02-25T08:41:21.631Z,5.20
2023-02-25T08:43:51.391Z,5.30
2023-02-25T08:46:21.145Z,5.30
2023-02-25T08:48:50.496Z,5.30
2023-02-25T08:51:18.633Z,5.40
2023-02-25T08:53:45.837Z,5.50
2023-02-25T08:56:16.464Z,5.50
2023-02-25T08:58:44.779Z,5.60
2023-02-25T09:01:17.053Z,5.80
2023-02-25T09:03:53.245Z,5.80
2023-02-25T09:06:26.625Z,5.60
2023-02-25T09:08:55.762Z,5.50
2023-02-25T09:11:24.551Z,5.50
2023-02-25T09:13:52.720Z,5.40
2023-02-25T09:16:20.310Z,5.30
2023-02-25T09:18:48.960Z,5.20
2023-02-25T09:21:16.356Z,5.30
2023-02-25T09:23:43.711Z,5.50
2023-02-25T09:26:11.075Z,5.60
2023-02-25T09:28:38.252Z,5.80
2023-02-25T09:31:05.800Z,5.90
2023-02-25T09:33:34.100Z,6.00
2023-02-25T09:36:12.463Z,6.10
2023-02-25T09:38:41.669Z,6.30
2023-02-25T09:41:23.371Z,6.40
2023-02-25T09:44:06.792Z,6.40
2023-02-25T09:46:37.454Z,6.40
2023-02-25T09:49:29.478Z,6.40
2023-02-25T09:52:12.919Z,6.30
2023-02-25T09:54:46.291Z,6.30
2023-02-25T09:57:19.209Z,6.30
2023-02-25T09:59:47.701Z,6.30
2023-02-25T10:02:48.903Z,6.20
2023-02-25T10:05:45.439Z,6.30
2023-02-25T10:08:21.178Z,6.30
2023-02-25T10:11:05.720Z,6.30
2023-02-25T10:13:44.762Z,6.40
2023-02-25T10:16:26.629Z,6.40
2023-02-25T10:19:03.831Z,6.40
2023-02-25T10:22:06.568Z,6.40
2023-02-25T10:24:44.131Z,6.40
2023-02-25T10:27:33.063Z,6.40
2023-02-25T10:30:07.384Z,6.40
2023-02-25T10:32:39.917Z,6.30
2023-02-25T10:35:20.488Z,6.30
2023-02-25T10:37:50.601Z,6.40
2023-02-25T10:40:22.192Z,6.50
2023-02-25T10:42:54.321Z,6.50
2023-02-25T10:45:26.082Z,6.50
2023-02-25T10:48:07.549Z,6.50
2023-02-25T10:50:45.639Z,6.70
2023-02-25T10:53:17.180Z,6.80
2023-02-25T10:55:44.176Z,6.60
2023-02-25T10:58:38.389Z,6.60
2023-02-25T11:01:18.304Z,6.50
2023-02-25T11:03:55.965Z,6.30
2023-02-25T11:06:37.219Z,5.80
2023-02-25T11:09:26.850Z,5.30
2023-02-25T11:12:09.001Z,4.60
2023-02-25T11:14:38.244Z,4.60
2023-02-25T11:17:18.251Z,4.80
2023-02-25T11:19:55.686Z,4.90
2023-02-25T11:22:31.601Z,4.90
2023-02-25T11:25:05.259Z,4.80
2023-02-25T11:27:39.552Z,4.90
2023-02-25T11:30:19.115Z,4.90
2023-02-25T11:32:53.907Z,5.00
2023-02-25T11:35:30.027Z,5.10
2023-02-25T11:37:59.457Z,5.10
2023-02-25T11:40:31.105Z,5.20
2023-02-25T11:43:07.328Z,5.30
2023-02-25T11:45:49.227Z,5.40
2023-02-25T11:48:18.244Z,5.60
2023-02-25T11:50:57.842Z,5.60
2023-02-25T11:53:27.749Z,5.60
2023-02-25T11:56:19.961Z,5.90
2023-02-25T11:59:06.142Z,6.10
2023-02-25T12:01:45.022Z,6.40
2023-02-25T12:04:34.879Z,6.50
2023-02-25T12:07:24.763Z,6.70
2023-02-25T12:10:21.955Z,6.70
2023-02-25T12:13:21.524Z,7.00
2023-02-25T12:16:17.372Z,7.20
2023-02-25T12:19:02.486Z,7.50
2023-02-25T12:22:01.935Z,7.20
2023-02-25T12:25:13.260Z,6.30
2023-02-25T12:27:47.397Z,5.40
2023-02-25T12:30:17.212Z,5.50
2023-02-25T12:32:53.846Z,5.70
2023-02-25T12:35:42.511Z,5.60
2023-02-25T12:38:28.220Z,5.60
2023-02-25T12:41:33.733Z,5.80
2023-02-25T12:44:15.740Z,6.10
2023-02-25T12:46:42.785Z,6.30
2023-02-25T12:49:12.818Z,6.60
2023-02-25T12:52:04.176Z,6.90
2023-02-25T12:54:51.175Z,6.90
2023-02-25T12:57:31.689Z,7.10
2023-02-25T13:00:20.578Z,7.20
2023-02-25T13:03:21.346Z,7.10
2023-02-25T13:05:57.257Z,6.90
2023-02-25T13:09:05.620Z,6.70
2023-02-25T13:12:12.300Z,6.70
2023-02-25T13:15:09.859Z,6.90
2023-02-25T13:18:06.732Z,7.10
2023-02-25T13:20:50.845Z,7.00
2023-02-25T13:23:41.287Z,7.00
2023-02-25T13:26:30.400Z,6.90
2023-02-25T13:29:13.028Z,6.80
2023-02-25T13:31:43.466Z,6.90
2023-02-25T13:34:21.592Z,7.10
2023-02-25T13:37:16.646Z,7.30
2023-02-25T13:40:07.548Z,7.20
2023-02-25T13:43:01.728Z,7.00
2023-02-25T13:45:49.891Z,6.80
2023-02-25T13:48:45.828Z,6.60
2023-02-25T13:51:47.630Z,6.60
2023-02-25T13:54:45.796Z,6.80
2023-02-25T13:57:50.448Z,7.00
2023-02-25T14:00:36.204Z,7.30
2023-02-25T14:03:03.328Z,7.50
2023-02-25T14:05:58.293Z,7.50
2023-02-25T14:08:46.230Z,7.10
2023-02-25T14:11:30.340Z,6.80
2023-02-25T14:14:15.964Z,6.60
2023-02-25T14:17:00.006Z,6.70
2023-02-25T14:19:53.280Z,6.90
2023-02-25T14:22:39.255Z,7.10
2023-02-25T14:25:37.122Z,7.20
2023-02-25T14:28:40.844Z,7.50
2023-02-25T14:31:31.872Z,7.50
2023-02-25T14:34:27.798Z,7.10
2023-02-25T14:37:25.592Z,6.80
2023-02-25T14:39:55.575Z,6.50
2023-02-25T14:42:29.090Z,6.70
2023-02-25T14:45:02.926Z,6.80
2023-02-25T14:47:45.059Z,6.90
2023-02-25T14:50:12.127Z,7.00
2023-02-25T14:53:13.072Z,7.10
2023-02-25T14:56:17.429Z,7.20
2023-02-25T14:59:00.324Z,7.10
2023-02-25T15:02:14.634Z,7.00
2023-02-25T15:05:09.081Z,6.90
2023-02-25T15:07:54.328Z,7.00
2023-02-25T15:11:11.826Z,7.10
2023-02-25T15:14:16.382Z,7.00
2023-02-25T15:16:49.381Z,6.90
2023-02-25T15:20:02.595Z,7.00
2023-02-25T15:22:34.380Z,7.00
2023-02-25T15:25:20.026Z,7.00
2023-02-25T15:27:51.925Z,7.00
2023-02-25T15:30:28.730Z,6.90
2023-02-25T15:32:58.084Z,6.80
2023-02-25T15:35:53.695Z,6.90
2023-02-25T15:38:42.060Z,6.90
2023-02-25T15:41:27.254Z,6.80
2023-02-25T15:43:59.194Z,6.70
2023-02-25T15:46:37.743Z,6.70
2023-02-25T15:49:34.281Z,6.60
2023-02-25T15:52:04.582Z,6.50
2023-02-25T15:54:31.659Z,6.50
2023-02-25T15:57:04.940Z,6.50
2023-02-25T15:59:50.396Z,6.40
2023-02-25T16:02:29.807Z,6.30
2023-02-25T16:04:59.622Z,6.20
2023-02-25T16:07:34.213Z,6.20
2023-02-25T16:10:07.866Z,6.20
2023-02-25T16:12:35.449Z,6.10
2023-02-25T16:15:04.362Z,6.10
2023-02-25T16:17:35.547Z,6.10
2023-02-25T16:20:33.796Z,6.00
2023-02-25T16:23:01.347Z,6.00
2023-02-25T16:26:00.096Z,6.00
2023-02-25T16:28:51.981Z,5.90
2023-02-25T16:31:25.050Z,5.90
2023-02-25T16:34:03.912Z,5.80
2023-02-25T16:36:57.420Z,5.80
2023-02-25T16:39:29.130Z,5.70
2023-02-25T16:41:56.162Z,5.70
2023-02-25T16:44:31.506Z,5.60
2023-02-25T16:46:59.391Z,5.60
2023-02-25T16:49:34.757Z,5.50
2023-02-25T16:52:01.903Z,5.50
2023-02-25T16:54:36.254Z,5.40
2023-02-25T16:57:06.920Z,5.30
2023-02-25T16:59:36.718Z,5.30
2023-02-25T17:02:20.981Z,5.20
2023-02-25T17:04:54.007Z,5.10
2023-02-25T17:07:25.291Z,5.10
2023-02-25T17:10:01.840Z,5.00
2023-02-25T17:12:35.732Z,5.00
2023-02-25T17:15:09.533Z,5.00
2023-02-25T17:17:39.924Z,4.90
2023-02-25T17:20:14.748Z,4.90
2023-02-25T17:22:44.267Z,4.70
2023-02-25T17:25:16.223Z,4.70
2023-02-25T17:27:45.626Z,4.70
2023-02-25T17:30:40.838Z,4.60
2023-02-25T17:33:22.036Z,4.50
2023-02-25T17:35:54.544Z,4.50
2023-02-25T17:38:23.713Z,4.50
2023-02-25T17:40:55.303Z,4.30
2023-02-25T17:43:33.478Z,4.30
2023-02-25T17:46:22.697Z,4.30
2023-02-25T17:48:53.363Z,4.20
2023-02-25T17:51:29.325Z,4.20
2023-02-25T17:54:06.243Z,4.10
2023-02-25T17:56:34.468Z,4.10
2023-02-25T17:59:06.246Z,4.20
2023-02-25T18:01:58.275Z,4.10
2023-02-25T18:04:33.951Z,4.10
2023-02-25T18:07:33.705Z,4.10
2023-02-25T18:10:01.586Z,4.10
2023-02-25T18:12:30.338Z,4.00
2023-02-25T18:15:02.629Z,4.00
2023-02-25T18:17:36.611Z,3.90
2023-02-25T18:20:25.569Z,3.90
2023-02-25T18:22:53.922Z,3.90
2023-02-25T18:25:33.639Z,3.90
2023-02-25T18:28:01.700Z,3.80
2023-02-25T18:30:32.511Z,3.80
2023-02-25T18:33:00.261Z,3.70
2023-02-25T18:35:29.274Z,3.60
2023-02-25T18:37:57.829Z,3.70
2023-02-25T18:40:36.615Z,3.80
2023-02-25T18:43:05.079Z,3.70
2023-02-25T18:45:33.844Z,3.70
2023-02-25T18:48:01.867Z,3.70
2023-02-25T18:50:33.370Z,3.60
2023-02-25T18:53:01.197Z,3.60
2023-02-25T18:55:30.876Z,3.60
2023-02-25T18:57:58.777Z,3.50
2023-02-25T19:00:27.745Z,3.50
2023-02-25T19:03:01.103Z,3.50
2023-02-25T19:05:28.618Z,3.40
2023-02-25T19:07:56.576Z,3.50
2023-02-25T19:10:26.838Z,3.40
2023-02-25T19:13:20.079Z,3.40
2023-02-25T19:15:47.532Z,3.40
2023-02-25T19:18:16.819Z,3.30
2023-02-25T19:20:45.005Z,3.30
2023-02-25T19:23:14.989Z,3.30
2023-02-25T19:25:44.285Z,3.30
2023-02-25T19:28:11.885Z,3.30
2023-02-25T19:30:41.303Z,3.30
2023-02-25T19:33:10.005Z,3.30
2023-02-25T19:35:40.043Z,3.20
2023-02-25T19:38:10.034Z,3.10
2023-02-25T19:40:37.814Z,3.10
2023-02-25T19:43:05.050Z,3.10
2023-02-25T19:45:32.837Z,3.10
2023-02-25T19:48:00.615Z,3.10
2023-02-25T19:50:28.700Z,3.10
2023-02-25T19:52:55.911Z,3.00
2023-02-25T19:55:27.467Z,2.90
2023-02-25T19:57:58.157Z,2.90
2023-02-25T20:00:26.187Z,2.90
2023-02-25T20:02:53.937Z,2.90
2023-02-25T20:05:27.578Z,2.80
2023-02-25T20:07:55.124Z,2.90
2023-02-25T20:10:22.472Z,2.80
2023-02-25T20:12:50.517Z,2.80
2023-02-25T20:15:18.923Z,2.70
2023-02-25T20:17:48.096Z,2.70
2023-02-25T20:20:16.400Z,2.60
2023-02-25T20:22:43.971Z,2.60
2023-02-25T20:25:13.575Z,2.60
2023-02-25T20:27:45.923Z,2.60
2023-02-25T20:30:15.779Z,2.60
2023-02-25T20:32:46.372Z,2.60
2023-02-25T20:35:23.281Z,2.50
2023-02-25T20:38:06.311Z,2.50
2023-02-25T20:40:39.096Z,2.60
2023-02-25T20:43:06.762Z,2.60
2023-02-25T20:45:34.661Z,2.70
2023-02-25T20:48:02.331Z,2.60
2023-02-25T20:50:29.829Z,2.60
2023-02-25T20:52:57.262Z,2.50
2023-02-25T20:55:24.715Z,2.50
2023-02-25T20:57:51.881Z,2.50
2023-02-25T21:00:21.003Z,2.40
2023-02-25T21:02:48.405Z,2.40
2023-02-25T21:05:15.865Z,2.30
2023-02-25T21:07:43.037Z,2.40
2023-02-25T21:10:11.484Z,2.30
2023-02-25T21:12:40.055Z,2.30
2023-02-25T21:15:09.839Z,2.40
2023-02-25T21:17:37.047Z,2.40
2023-02-25T21:20:06.949Z,2.30
2023-02-25T21:22:34.337Z,2.30
2023-02-25T21:25:05.492Z,2.30
2023-02-25T21:27:32.806Z,2.30
2023-02-25T21:30:00.399Z,2.30
2023-02-25T21:32:27.468Z,2.30
2023-02-25T21:34:54.730Z,2.30
2023-02-25T21:37:22.249Z,2.20
2023-02-25T21:39:52.190Z,2.20
2023-02-25T21:42:20.391Z,2.30
2023-02-25T21:44:49.515Z,2.30
2023-02-25T21:47:19.775Z,2.30
2023-02-25T21:49:47.459Z,2.30
2023-02-25T21:52:19.091Z,2.30
2023-02-25T21:54:46.180Z,2.30
2023-02-25T21:57:13.596Z,2.30
2023-02-25T21:59:41.546Z,2.30
2023-02-25T22:02:11.482Z,2.30
2023-02-25T22:04:38.703Z,2.20
2023-02-25T22:07:07.268Z,2.20
2023-02-25T22:09:34.640Z,2.10
2023-02-25T22:12:04.567Z,2.10
2023-02-25T22:14:34.094Z,2.10
2023-02-25T22:17:02.773Z,2.00
2023-02-25T22:19:30.450Z,2.10
2023-02-25T22:21:57.799Z,2.10
2023-02-25T22:24:25.160Z,2.10
2023-02-25T22:26:52.859Z,2.10
2023-02-25T22:29:20.020Z,2.00
2023-02-25T22:31:49.273Z,2.00
2023-02-25T22:34:16.609Z,2.10
2023-02-25T22:36:43.851Z,2.00
2023-02-25T22:39:12.221Z,2.00
2023-02-25T22:41:39.503Z,2.00
2023-02-25T22:44:07.033Z,2.10
2023-02-25T22:46:38.184Z,2.00
2023-02-25T22:49:07.786Z,2.00
2023-02-25T22:51:40.629Z,2.00
2023-02-25T22:54:09.383Z,2.00
2023-02-25T22:56:37.402Z,2.00
2023-02-25T22:59:04.792Z,2.00
2023-02-25T23:01:32.665Z,2.00
2023-02-25T23:03:59.857Z,2.00
2023-02-25T23:06:42.956Z,2.00
2023-02-25T23:09:12.527Z,2.00
2023-02-25T23:11:42.708Z,2.00
2023-02-25T23:14:10.370Z,1.90
2023-02-25T23:16:42.930Z,2.00
2023-02-25T23:19:14.549Z,1.90
2023-02-25T23:21:42.316Z,1.90
2023-02-25T23:24:16.344Z,1.80
2023-02-25T23:26:45.428Z,1.80
2023-02-25T23:29:14.244Z,1.80
2023-02-25T23:31:45.362Z,1.80
2023-02-25T23:34:15.275Z,1.80
2023-02-25T23:36:47.024Z,1.70
2023-02-25T23:39:14.901Z,1.70
2023-02-25T23:41:42.534Z,1.70
2023-02-25T23:44:12.461Z,1.70
2023-02-25T23:46:42.967Z,1.70
2023-02-25T23:49:12.805Z,1.80
2023-02-25T23:51:46.747Z,1.70
2023-02-25T23:54:15.986Z,1.70
2023-02-25T23:56:43.535Z,1.70
2023-02-25T23:59:11.002Z,1.60
